createdAt,value
2023-04-24T00:00:18.779Z,14.70
2023-04-24T00:02:49.884Z,14.80
2023-04-24T00:05:18.596Z,14.80
2023-04-24T00:07:46.499Z,14.80
2023-04-24T00:10:13.851Z,14.60
2023-04-24T00:12:41.221Z,14.70
2023-04-24T00:15:09.770Z,14.40
2023-04-24T00:17:37.943Z,14.50
2023-04-24T00:20:08.041Z,14.70
2023-04-24T00:22:35.417Z,14.70
2023-04-24T00:25:02.793Z,14.80
2023-04-24T00:27:31.171Z,14.60
2023-04-24T00:30:00.250Z,14.40
2023-04-24T00:32:27.495Z,14.50
2023-04-24T00:34:54.862Z,14.50
2023-04-24T00:37:22.348Z,14.30
2023-04-24T00:39:49.684Z,14.60
2023-04-24T00:42:16.997Z,14.40
2023-04-24T00:44:44.653Z,14.30
2023-04-24T00:47:14.179Z,14.50
2023-04-24T00:49:41.668Z,14.60
2023-04-24T00:52:11.908Z,14.40
2023-04-24T00:54:39.884Z,14.30
2023-04-24T00:57:07.702Z,14.30
2023-04-24T00:59:36.935Z,14.30
2023-04-24T01:02:04.502Z,14.40
2023-04-24T01:04:32.034Z,14.30
2023-04-24T01:06:59.517Z,14.40
2023-04-24T01:09:30.309Z,14.30
2023-04-24T01:11:57.697Z,14.20
2023-04-24T01:14:25.192Z,14.20
2023-04-24T01:16:52.574Z,14.30
2023-04-24T01:19:20.896Z,14.40
2023-04-24T01:21:59.374Z,14.40
2023-04-24T01:24:34.040Z,14.30
2023-04-24T01:27:02.313Z,14.60
2023-04-24T01:29:29.876Z,14.30
2023-04-24T01:31:59.577Z,14.30
2023-04-24T01:34:27.689Z,14.70
2023-04-24T01:36:55.312Z,14.70
2023-04-24T01:39:24.426Z,14.30
2023-04-24T01:41:51.866Z,14.30
2023-04-24T01:44:19.825Z,14.50
2023-04-24T01:46:47.358Z,14.20
2023-04-24T01:49:14.964Z,14.30
2023-04-24T01:51:42.560Z,14.20
2023-04-24T01:54:10.852Z,14.10
2023-04-24T01:56:43.888Z,14.20
2023-04-24T01:59:12.884Z,14.40
2023-04-24T02:01:42.769Z,14.20
2023-04-24T02:04:20.928Z,14.10
2023-04-24T02:06:48.292Z,14.20
2023-04-24T02:09:18.814Z,14.20
2023-04-24T02:11:46.243Z,14.00
2023-04-24T02:14:13.689Z,14.20
2023-04-24T02:16:41.587Z,14.50
2023-04-24T02:19:10.890Z,14.20
2023-04-24T02:21:38.377Z,14.00
2023-04-24T02:24:05.724Z,14.60
2023-04-24T02:26:33.130Z,14.10
2023-04-24T02:29:00.782Z,14.10
2023-04-24T02:31:28.642Z,14.10
2023-04-24T02:34:10.280Z,14.20
2023-04-24T02:36:37.754Z,14.10
2023-04-24T02:39:05.182Z,14.20
2023-04-24T02:41:35.665Z,14.20
2023-04-24T02:44:03.169Z,14.20
2023-04-24T02:46:30.529Z,14.20
2023-04-24T02:48:57.885Z,14.30
2023-04-24T02:51:25.396Z,14.20
2023-04-24T02:53:52.992Z,14.50
2023-04-24T02:56:20.773Z,14.40
2023-04-24T02:58:48.413Z,14.40
2023-04-24T03:01:15.902Z,14.40
2023-04-24T03:03:43.484Z,14.30
2023-04-24T03:06:10.957Z,14.30
2023-04-24T03:08:38.386Z,14.40
2023-04-24T03:11:06.584Z,14.50
2023-04-24T03:13:33.996Z,14.60
2023-04-24T03:16:01.612Z,14.30
2023-04-24T03:18:29.108Z,14.70
2023-04-24T03:20:56.620Z,14.50
2023-04-24T03:23:23.827Z,14.50
2023-04-24T03:25:51.167Z,14.30
2023-04-24T03:28:18.491Z,14.20
2023-04-24T03:30:48.313Z,14.40
2023-04-24T03:33:15.888Z,14.60
2023-04-24T03:35:43.989Z,14.30
2023-04-24T03:38:11.779Z,14.20
2023-04-24T03:40:39.202Z,14.40
2023-04-24T03:43:06.855Z,14.50
2023-04-24T03:45:36.105Z,14.10
2023-04-24T03:48:03.982Z,14.40
2023-04-24T03:50:36.574Z,14.20
2023-04-24T03:53:04.032Z,14.10
2023-04-24T03:55:47.938Z,14.10
2023-04-24T03:58:15.706Z,13.90
2023-04-24T04:00:43.332Z,14.00
2023-04-24T04:03:11.172Z,14.00
2023-04-24T04:05:38.815Z,13.90
2023-04-24T04:08:16.241Z,13.90
2023-04-24T04:10:43.732Z,13.80
2023-04-24T04:13:14.334Z,13.70
2023-04-24T04:15:42.253Z,13.20
2023-04-24T04:18:09.759Z,13.40
2023-04-24T04:20:37.107Z,13.30
2023-04-24T04:23:04.588Z,13.50
2023-04-24T04:25:37.741Z,13.60
2023-04-24T04:28:05.236Z,13.60
2023-04-24T04:30:33.397Z,13.60
2023-04-24T04:33:01.627Z,13.50
2023-04-24T04:35:29.028Z,13.30
2023-04-24T04:38:00.058Z,13.20
2023-04-24T04:40:28.320Z,13.20
2023-04-24T04:42:55.587Z,13.50
2023-04-24T04:45:22.931Z,13.60
2023-04-24T04:47:52.840Z,13.50
2023-04-24T04:50:20.620Z,13.60
2023-04-24T04:52:47.916Z,13.50
2023-04-24T04:55:15.845Z,13.40
2023-04-24T04:57:43.084Z,13.60
2023-04-24T05:00:11.994Z,13.60
2023-04-24T05:02:40.541Z,13.60
2023-04-24T05:05:09.934Z,13.50
2023-04-24T05:07:37.379Z,13.70
2023-04-24T05:10:05.263Z,13.90
2023-04-24T05:12:32.540Z,13.80
2023-04-24T05:14:59.835Z,13.90
2023-04-24T05:17:27.289Z,13.80
2023-04-24T05:19:54.530Z,13.80
2023-04-24T05:22:23.499Z,13.80
2023-04-24T05:24:51.069Z,13.70
2023-04-24T05:27:18.997Z,13.60
2023-04-24T05:29:46.168Z,13.70
2023-04-24T05:32:15.697Z,13.30
2023-04-24T05:34:45.322Z,13.40
2023-04-24T05:37:13.389Z,13.50
2023-04-24T05:39:42.387Z,13.40
2023-04-24T05:42:10.199Z,13.20
2023-04-24T05:44:40.477Z,13.30
2023-04-24T05:47:07.999Z,13.20
2023-04-24T05:49:35.218Z,13.70
2023-04-24T05:52:02.448Z,13.60
2023-04-24T05:54:30.000Z,13.60
2023-04-24T05:56:59.856Z,14.20
2023-04-24T05:59:27.534Z,14.30
2023-04-24T06:01:54.813Z,14.40
2023-04-24T06:04:22.746Z,14.50
2023-04-24T06:06:51.984Z,14.60
2023-04-24T06:09:19.605Z,15.10
2023-04-24T06:11:46.914Z,15.20
2023-04-24T06:14:14.485Z,14.80
2023-04-24T06:16:44.990Z,14.70
2023-04-24T06:19:12.271Z,14.80
2023-04-24T06:21:39.518Z,14.90
2023-04-24T06:24:07.061Z,14.90
2023-04-24T06:26:34.507Z,14.80
2023-04-24T06:29:02.146Z,15.00
2023-04-24T06:31:45.335Z,14.90
2023-04-24T06:34:12.805Z,15.20
2023-04-24T06:36:40.145Z,14.90
2023-04-24T06:39:11.008Z,15.30
2023-04-24T06:41:39.011Z,14.90
2023-04-24T06:44:06.654Z,14.80
2023-04-24T06:46:37.192Z,14.90
2023-04-24T06:49:08.595Z,15.20
2023-04-24T06:51:36.892Z,15.10
2023-04-24T06:54:19.018Z,15.10
2023-04-24T06:56:48.914Z,15.20
2023-04-24T06:59:21.576Z,15.10
2023-04-24T07:01:53.958Z,14.90
2023-04-24T07:04:23.057Z,15.20
2023-04-24T07:06:55.506Z,15.00
2023-04-24T07:09:26.643Z,15.00
2023-04-24T07:12:01.888Z,15.10
2023-04-24T07:14:35.395Z,15.00
2023-04-24T07:17:10.455Z,14.90
2023-04-24T07:19:47.308Z,14.90
2023-04-24T07:22:45.287Z,15.10
2023-04-24T07:28:14.739Z,15.20
2023-04-24T07:30:48.638Z,15.30
2023-04-24T07:33:37.890Z,15.40
2023-04-24T07:36:27.389Z,15.50
2023-04-24T07:38:55.366Z,15.50
2023-04-24T07:41:23.571Z,15.50
2023-04-24T07:43:55.012Z,15.40
2023-04-24T07:46:34.969Z,15.40
2023-04-24T07:49:12.974Z,15.50
2023-04-24T07:51:42.751Z,15.30
2023-04-24T07:54:10.777Z,15.30
2023-04-24T07:56:40.355Z,15.00
2023-04-24T07:59:08.097Z,15.50
2023-04-24T08:01:35.704Z,15.40
2023-04-24T08:04:05.653Z,15.40
2023-04-24T08:06:33.681Z,15.30
2023-04-24T08:09:02.640Z,15.40
2023-04-24T08:11:32.979Z,15.30
2023-04-24T08:14:00.573Z,15.60
2023-04-24T08:16:30.694Z,15.30
2023-04-24T08:18:58.222Z,15.60
2023-04-24T08:21:31.506Z,15.10
2023-04-24T08:24:06.307Z,15.40
2023-04-24T08:26:46.548Z,15.20
2023-04-24T08:29:32.399Z,15.30
2023-04-24T08:32:02.837Z,15.30
2023-04-24T08:34:30.229Z,15.00
2023-04-24T08:36:58.737Z,15.10
2023-04-24T08:39:28.505Z,15.30
2023-04-24T08:41:57.602Z,15.30
2023-04-24T08:44:24.809Z,15.00
2023-04-24T08:46:53.269Z,15.40
2023-04-24T08:49:24.521Z,15.30
2023-04-24T08:52:08.052Z,14.80
2023-04-24T08:54:39.346Z,15.20
2023-04-24T08:57:12.567Z,15.10
2023-04-24T08:59:41.033Z,14.90
2023-04-24T09:02:12.910Z,14.70
2023-04-24T09:04:42.891Z,14.90
2023-04-24T09:07:17.767Z,14.60
2023-04-24T09:09:49.451Z,14.50
2023-04-24T09:12:16.922Z,14.40
2023-04-24T09:14:46.494Z,14.50
2023-04-24T09:17:14.401Z,14.40
2023-04-24T09:19:42.738Z,14.40
2023-04-24T09:22:12.412Z,14.40
2023-04-24T09:24:42.450Z,14.30
2023-04-24T09:27:13.964Z,14.20
2023-04-24T09:29:55.383Z,14.50
2023-04-24T09:32:26.885Z,14.00
2023-04-24T09:35:15.569Z,14.20
2023-04-24T09:37:46.824Z,14.10
2023-04-24T09:40:23.356Z,13.90
2023-04-24T09:42:58.943Z,14.00
2023-04-24T09:45:36.694Z,14.00
2023-04-24T09:48:04.564Z,14.10
2023-04-24T09:50:38.354Z,14.10
2023-04-24T09:53:09.939Z,13.70
2023-04-24T09:55:45.880Z,13.90
2023-04-24T09:58:13.044Z,14.00
2023-04-24T10:00:40.330Z,14.20
2023-04-24T10:03:07.758Z,13.90
2023-04-24T10:05:39.861Z,13.90
2023-04-24T10:08:13.039Z,13.90
2023-04-24T10:10:46.184Z,14.00
2023-04-24T10:13:16.790Z,14.00
2023-04-24T10:15:45.033Z,14.00
2023-04-24T10:18:12.751Z,14.00
2023-04-24T10:20:41.690Z,13.60
2023-04-24T10:23:09.197Z,14.10
2023-04-24T10:25:37.998Z,14.00
2023-04-24T10:28:07.794Z,14.00
2023-04-24T10:30:36.866Z,14.10
2023-04-24T10:33:09.991Z,14.20
2023-04-24T10:35:46.794Z,13.80
2023-04-24T10:38:18.017Z,13.80
2023-04-24T10:40:45.449Z,13.70
2023-04-24T10:43:20.026Z,14.00
2023-04-24T10:46:11.611Z,13.90
2023-04-24T10:48:45.470Z,13.90
2023-04-24T10:51:15.191Z,13.80
2023-04-24T10:53:42.359Z,14.00
2023-04-24T10:56:11.124Z,14.00
2023-04-24T10:58:48.791Z,14.00
2023-04-24T11:01:34.081Z,14.10
2023-04-24T11:04:04.691Z,14.00
2023-04-24T11:06:32.905Z,14.00
2023-04-24T11:09:08.483Z,14.00
2023-04-24T11:11:45.166Z,14.00
2023-04-24T11:14:16.145Z,14.10
2023-04-24T11:16:58.102Z,13.90
2023-04-24T11:19:27.637Z,14.00
2023-04-24T11:22:04.359Z,14.10
2023-04-24T11:24:54.874Z,14.00
2023-04-24T11:27:23.754Z,14.10
2023-04-24T11:29:57.601Z,14.10
2023-04-24T11:32:34.417Z,14.20
2023-04-24T11:35:23.478Z,14.30
2023-04-24T11:38:13.060Z,14.10
2023-04-24T11:40:43.874Z,14.20
2023-04-24T11:43:19.937Z,14.10
2023-04-24T11:45:52.084Z,14.20
2023-04-24T11:48:23.693Z,14.00
2023-04-24T11:50:51.991Z,14.00
2023-04-24T11:53:22.883Z,14.00
2023-04-24T11:56:03.042Z,13.90
2023-04-24T11:58:36.375Z,13.90
2023-04-24T12:01:04.405Z,13.90
2023-04-24T12:03:32.588Z,14.10
2023-04-24T12:06:11.277Z,14.10
2023-04-24T12:08:38.994Z,13.90
2023-04-24T12:11:11.301Z,14.20
2023-04-24T12:13:38.595Z,13.90
2023-04-24T12:16:06.864Z,13.90
2023-04-24T12:18:34.367Z,14.30
2023-04-24T12:21:26.193Z,14.30
2023-04-24T12:23:56.813Z,14.10
2023-04-24T12:26:38.365Z,14.10
2023-04-24T12:29:05.805Z,14.00
2023-04-24T12:31:33.770Z,13.90
2023-04-24T12:34:01.635Z,14.00
2023-04-24T12:36:34.323Z,13.90
2023-04-24T12:39:27.826Z,13.90
2023-04-24T12:42:03.299Z,14.00
2023-04-24T12:44:38.199Z,14.10
2023-04-24T12:47:08.080Z,14.10
2023-04-24T12:49:35.365Z,14.00
2023-04-24T12:52:02.690Z,13.90
2023-04-24T12:54:34.775Z,13.90
2023-04-24T12:57:17.253Z,13.90
2023-04-24T12:59:45.099Z,13.90
2023-04-24T13:02:13.504Z,13.80
2023-04-24T13:04:41.919Z,13.70
2023-04-24T13:07:09.414Z,13.80
2023-04-24T13:09:36.975Z,13.80
2023-04-24T13:12:04.280Z,13.80
2023-04-24T13:14:31.776Z,13.80
2023-04-24T13:16:59.045Z,13.60
2023-04-24T13:19:31.149Z,13.70
2023-04-24T13:22:07.707Z,13.40
2023-04-24T13:24:35.700Z,13.40
2023-04-24T13:27:06.302Z,13.70
2023-04-24T13:29:39.931Z,13.70
2023-04-24T13:32:08.332Z,13.70
2023-04-24T13:34:36.364Z,13.80
2023-04-24T13:37:07.247Z,13.70
2023-04-24T13:39:34.930Z,13.80
2023-04-24T13:42:04.604Z,13.70
2023-04-24T13:44:32.787Z,13.90
2023-04-24T13:47:00.594Z,13.80
2023-04-24T13:49:28.501Z,13.80
2023-04-24T13:51:57.195Z,13.70
2023-04-24T13:54:27.024Z,13.90
2023-04-24T13:56:57.873Z,13.70
2023-04-24T13:59:26.202Z,13.70
2023-04-24T14:01:55.967Z,13.70
2023-04-24T14:04:33.698Z,13.80
2023-04-24T14:07:01.410Z,13.60
2023-04-24T14:09:28.684Z,13.80
2023-04-24T14:11:56.086Z,13.90
2023-04-24T14:14:24.139Z,13.80
2023-04-24T14:16:51.530Z,13.80
2023-04-24T14:19:19.102Z,14.00
2023-04-24T14:21:46.538Z,13.80
2023-04-24T14:24:16.192Z,13.90
2023-04-24T14:26:43.663Z,13.80
2023-04-24T14:29:35.409Z,13.90
2023-04-24T14:32:02.880Z,13.70
2023-04-24T14:34:35.995Z,13.80
2023-04-24T14:37:36.112Z,13.90
2023-04-24T14:40:36.585Z,13.70
2023-04-24T14:48:46.277Z,13.10
2023-04-24T14:51:13.740Z,13.30
2023-04-24T14:53:41.125Z,12.90
2023-04-24T14:56:08.806Z,12.80
2023-04-24T14:58:36.298Z,12.70
2023-04-24T15:01:03.740Z,12.90
2023-04-24T15:03:32.150Z,12.80
2023-04-24T15:05:59.866Z,12.90
2023-04-24T15:08:27.319Z,12.80
2023-04-24T15:10:54.960Z,12.60
2023-04-24T15:13:25.131Z,12.50
2023-04-24T15:15:52.387Z,12.60
2023-04-24T15:18:19.602Z,12.60
2023-04-24T15:20:47.150Z,12.60
2023-04-24T15:23:14.356Z,12.80
2023-04-24T15:25:41.607Z,12.60
2023-04-24T15:28:08.823Z,12.50
2023-04-24T15:30:36.183Z,12.50
2023-04-24T15:33:03.546Z,12.30
2023-04-24T15:35:31.147Z,12.40
2023-04-24T15:37:58.410Z,12.40
2023-04-24T15:40:25.892Z,12.40
2023-04-24T15:42:55.037Z,12.30
2023-04-24T15:45:25.366Z,12.30
2023-04-24T15:47:52.815Z,12.40
2023-04-24T15:50:21.971Z,12.30
2023-04-24T15:52:49.030Z,12.30
2023-04-24T15:55:16.384Z,12.30
2023-04-24T15:57:43.930Z,12.10
2023-04-24T16:00:11.961Z,12.10
2023-04-24T16:02:41.807Z,12.10
2023-04-24T16:05:11.594Z,12.20
2023-04-24T16:07:40.387Z,12.30
2023-04-24T16:10:08.146Z,12.40
2023-04-24T16:12:38.161Z,12.10
2023-04-24T16:15:06.337Z,12.10
2023-04-24T16:17:33.465Z,12.00
2023-04-24T16:20:00.716Z,12.00
2023-04-24T16:22:28.297Z,12.00
2023-04-24T16:24:55.513Z,11.80
2023-04-24T16:27:22.764Z,11.90
2023-04-24T16:29:57.237Z,12.00
2023-04-24T16:32:24.749Z,12.10
2023-04-24T16:34:52.381Z,12.00
2023-04-24T16:37:20.578Z,11.90
2023-04-24T16:39:51.461Z,12.10
2023-04-24T16:42:18.664Z,11.70
2023-04-24T16:44:45.792Z,12.10
2023-04-24T16:47:14.813Z,11.80
2023-04-24T16:49:42.432Z,12.10
2023-04-24T16:52:11.844Z,12.00
2023-04-24T16:54:40.927Z,12.00
2023-04-24T16:57:08.229Z,12.10
2023-04-24T16:59:35.846Z,12.00
2023-04-24T17:02:03.400Z,12.10
2023-04-24T17:04:32.374Z,12.00
2023-04-24T17:06:59.880Z,12.00
2023-04-24T17:09:27.209Z,12.10
2023-04-24T17:11:54.461Z,11.90
2023-04-24T17:14:23.351Z,12.00
2023-04-24T17:16:50.886Z,12.00
2023-04-24T17:19:32.568Z,12.00
2023-04-24T17:22:06.181Z,11.80
2023-04-24T17:24:33.865Z,11.90
2023-04-24T17:27:13.841Z,11.80
2023-04-24T17:29:52.520Z,11.80
2023-04-24T17:32:26.320Z,12.00
2023-04-24T17:34:58.578Z,11.80
2023-04-24T17:37:28.907Z,11.80
2023-04-24T17:39:59.018Z,11.80
2023-04-24T17:42:38.411Z,11.80
2023-04-24T17:45:18.240Z,11.90
2023-04-24T17:48:10.634Z,11.90
2023-04-24T17:51:14.109Z,11.60
2023-04-24T17:53:34.887Z,11.70
2023-04-24T17:56:04.052Z,11.70
2023-04-24T17:58:35.637Z,11.70
2023-04-24T18:01:03.201Z,11.80
2023-04-24T18:03:30.818Z,11.70
2023-04-24T18:05:59.460Z,11.70
2023-04-24T18:08:26.853Z,11.60
2023-04-24T18:10:54.247Z,11.60
2023-04-24T18:13:21.675Z,11.60
2023-04-24T18:15:48.968Z,11.70
2023-04-24T18:18:18.236Z,11.50
2023-04-24T18:20:46.575Z,11.60
2023-04-24T18:23:16.230Z,11.70
2023-04-24T18:25:43.595Z,11.60
2023-04-24T18:28:10.942Z,11.90
2023-04-24T18:30:43.720Z,11.60
2023-04-24T18:33:12.162Z,11.80
2023-04-24T18:35:41.968Z,11.40
2023-04-24T18:38:09.629Z,11.60
2023-04-24T18:40:51.723Z,11.60
2023-04-24T18:43:21.523Z,11.60
2023-04-24T18:45:52.557Z,11.60
2023-04-24T18:48:20.227Z,11.90
2023-04-24T18:51:14.415Z,11.70
2023-04-24T18:53:43.030Z,11.80
2023-04-24T18:56:22.515Z,12.00
2023-04-24T18:58:57.812Z,11.80
2023-04-24T19:01:34.201Z,11.70
2023-04-24T19:04:07.180Z,11.70
2023-04-24T19:06:49.123Z,11.80
2023-04-24T19:09:19.090Z,11.70
2023-04-24T19:11:55.092Z,12.00
2023-04-24T19:14:29.865Z,11.70
2023-04-24T19:17:00.939Z,11.70
2023-04-24T19:19:31.232Z,11.80
2023-04-24T19:21:58.791Z,12.10
2023-04-24T19:24:27.078Z,11.70
2023-04-24T19:26:54.316Z,11.90
2023-04-24T19:29:21.616Z,11.90
2023-04-24T19:31:49.033Z,11.90
2023-04-24T19:34:16.469Z,11.70
2023-04-24T19:36:46.183Z,11.80
2023-04-24T19:39:13.597Z,11.80
2023-04-24T19:41:41.068Z,11.80
2023-04-24T19:44:09.982Z,11.70
2023-04-24T19:46:37.651Z,11.60
2023-04-24T19:49:07.240Z,11.70
2023-04-24T19:51:37.832Z,11.80
2023-04-24T19:54:06.824Z,11.60
2023-04-24T19:56:36.334Z,11.80
2023-04-24T19:59:03.968Z,11.60
2023-04-24T20:01:32.532Z,11.70
2023-04-24T20:04:00.053Z,11.90
2023-04-24T20:06:34.626Z,11.70
2023-04-24T20:09:19.776Z,11.70
2023-04-24T20:12:04.555Z,11.90
2023-04-24T20:14:44.334Z,11.70
2023-04-24T20:17:18.229Z,11.60
2023-04-24T20:19:48.303Z,11.60
2023-04-24T20:22:17.841Z,11.50
2023-04-24T20:24:46.052Z,11.70
2023-04-24T20:27:13.431Z,11.90
2023-04-24T20:29:41.117Z,11.90
2023-04-24T20:32:08.575Z,11.50
2023-04-24T20:34:36.060Z,11.40
2023-04-24T20:37:04.234Z,11.80
2023-04-24T20:39:31.489Z,11.50
2023-04-24T20:42:00.968Z,11.50
2023-04-24T20:44:28.450Z,11.50
2023-04-24T20:46:55.852Z,11.80
2023-04-24T20:49:23.152Z,11.50
2023-04-24T20:51:50.470Z,11.50
2023-04-24T20:54:17.726Z,11.50
2023-04-24T20:56:45.138Z,11.40
2023-04-24T20:59:12.451Z,11.50
2023-04-24T21:01:39.663Z,11.50
2023-04-24T21:04:06.846Z,11.40
2023-04-24T21:06:34.016Z,11.40
2023-04-24T21:09:01.137Z,11.40
2023-04-24T21:11:28.278Z,11.40
2023-04-24T21:13:55.587Z,11.40
2023-04-24T21:16:25.079Z,11.40
2023-04-24T21:18:52.353Z,11.40
2023-04-24T21:21:19.438Z,11.40
2023-04-24T21:23:46.739Z,11.40
2023-04-24T21:26:14.079Z,11.40
2023-04-24T21:28:41.297Z,11.30
2023-04-24T21:31:09.947Z,11.40
2023-04-24T21:33:37.356Z,11.40
2023-04-24T21:36:04.781Z,11.40
2023-04-24T21:38:40.416Z,11.40
2023-04-24T21:41:07.679Z,11.40
2023-04-24T21:43:43.810Z,11.40
2023-04-24T21:46:12.139Z,11.40
2023-04-24T21:48:39.305Z,11.40
2023-04-24T21:51:06.423Z,11.30
2023-04-24T21:53:33.909Z,11.30
2023-04-24T21:56:01.337Z,11.30
2023-04-24T21:58:28.869Z,11.30
2023-04-24T22:00:56.017Z,11.20
2023-04-24T22:03:23.402Z,11.30
2023-04-24T22:05:50.629Z,11.30
2023-04-24T22:08:17.789Z,11.20
2023-04-24T22:10:45.130Z,11.20
2023-04-24T22:13:12.274Z,11.20
2023-04-24T22:15:39.422Z,11.30
2023-04-24T22:18:06.809Z,11.20
2023-04-24T22:20:34.232Z,11.20
2023-04-24T22:23:01.803Z,11.30
2023-04-24T22:25:28.997Z,11.20
2023-04-24T22:27:56.416Z,11.20
2023-04-24T22:30:23.628Z,11.20
2023-04-24T22:32:51.065Z,11.10
2023-04-24T22:35:19.862Z,10.90
2023-04-24T22:37:48.925Z,10.90
2023-04-24T22:40:16.150Z,11.20
2023-04-24T22:42:43.352Z,11.30
2023-04-24T22:45:13.484Z,11.20
2023-04-24T22:47:41.225Z,11.20
2023-04-24T22:50:10.771Z,11.10
2023-04-24T22:52:37.996Z,11.30
2023-04-24T22:55:06.777Z,10.90
2023-04-24T22:57:34.155Z,10.90
2023-04-24T23:00:01.300Z,10.80
2023-04-24T23:02:29.107Z,10.70
2023-04-24T23:04:56.840Z,10.80
2023-04-24T23:07:23.939Z,10.80
2023-04-24T23:09:51.115Z,10.70
2023-04-24T23:12:18.258Z,10.70
2023-04-24T23:14:45.443Z,10.90
2023-04-24T23:17:12.585Z,10.60
2023-04-24T23:19:39.848Z,10.70
2023-04-24T23:22:07.037Z,10.80
2023-04-24T23:24:34.266Z,10.70
2023-04-24T23:27:02.119Z,10.80
2023-04-24T23:29:29.329Z,10.80
2023-04-24T23:31:56.578Z,10.80
2023-04-24T23:34:23.868Z,10.80
2023-04-24T23:36:52.812Z,10.90
2023-04-24T23:39:20.337Z,10.80
2023-04-24T23:41:49.436Z,11.10
2023-04-24T23:44:16.673Z,10.70
2023-04-24T23:46:43.718Z,10.60
2023-04-24T23:49:10.797Z,10.70
2023-04-24T23:51:38.311Z,10.60
2023-04-24T23:54:05.720Z,10.70
2023-04-24T23:56:33.015Z,10.60
2023-04-24T23:59:00.104Z,10.60
